Time;durP1;ratioP1;P1;durP2;ratioP2;P2;SDS_P1;SDS_P2;PMS_P1;PMS_P2;Temp;Humidity;BMP_temperature;BMP_pressure;BME280_temperature;BME280_humidity;BME280_pressure;Samples;Min_cycle;Max_cycle;Signal;HPM_P1;HPM_P2
2021/01/07 00:00:05;;;;;;;7.55;4.20;;;;;;;3.57;47.62;101047.91;4980441;28;20053;-72
2021/01/07 00:02:39;;;;;;;6.57;3.70;;;;;;;3.54;47.37;101042.63;4988262;28;20245;-72
2021/01/07 00:05:07;;;;;;;7.80;3.90;;;;;;;3.54;47.23;101042.63;4990220;28;20058;-72
2021/01/07 00:07:35;;;;;;;8.68;4.20;;;;;;;3.53;47.33;101040.91;4984260;28;20498;-72
2021/01/07 00:10:04;;;;;;;6.47;3.65;;;;;;;3.53;47.21;101038.22;4979179;28;20042;-71
2021/01/07 00:12:32;;;;;;;8.27;3.70;;;;;;;3.53;47.70;101043.63;4986466;28;20050;-72
2021/01/07 00:15:00;;;;;;;8.32;4.55;;;;;;;3.51;47.71;101032.00;4989945;28;20042;-71
2021/01/07 00:17:27;;;;;;;9.82;4.65;;;;;;;3.49;47.39;101034.78;4991343;28;20058;-71
2021/01/07 00:19:55;;;;;;;7.90;4.18;;;;;;;3.49;47.48;101036.63;4990797;28;20117;-71
2021/01/07 00:22:22;;;;;;;7.28;4.05;;;;;;;3.48;47.58;101037.56;4989978;28;20049;-71
2021/01/07 00:24:49;;;;;;;9.68;4.50;;;;;;;3.47;47.62;101036.69;4993325;28;20121;-72
2021/01/07 00:27:17;;;;;;;7.50;4.05;;;;;;;3.47;47.33;101027.69;4987473;28;20564;-72
2021/01/07 00:29:44;;;;;;;7.75;4.63;;;;;;;3.46;47.70;101031.38;4990612;28;20054;-72
2021/01/07 00:32:12;;;;;;;7.70;4.43;;;;;;;3.47;47.62;101027.69;4989378;28;20042;-72
2021/01/07 00:34:40;;;;;;;8.30;4.00;;;;;;;3.47;47.93;101025.00;4991419;28;20061;-72
2021/01/07 00:37:07;;;;;;;7.82;4.43;;;;;;;3.47;47.67;101025.88;4987058;28;20891;-72
2021/01/07 00:39:37;;;;;;;6.63;3.85;;;;;;;3.48;47.88;101021.34;4988848;28;20070;-71
2021/01/07 00:42:05;;;;;;;7.35;3.83;;;;;;;3.48;47.73;101027.63;4990986;28;20030;-72
2021/01/07 00:44:32;;;;;;;9.75;4.47;;;;;;;3.49;47.74;101020.38;4982626;28;20043;-72
2021/01/07 00:46:59;;;;;;;8.65;4.50;;;;;;;3.48;47.67;101022.22;4990750;28;20049;-72
2021/01/07 00:49:28;;;;;;;8.35;4.40;;;;;;;3.49;47.67;101020.38;4987826;28;20046;-72
2021/01/07 00:51:55;;;;;;;8.50;4.55;;;;;;;3.47;47.75;101017.75;5005756;28;20045;-72
2021/01/07 00:54:23;;;;;;;8.98;4.35;;;;;;;3.48;47.70;101022.22;4983772;28;20047;-72
2021/01/07 00:56:53;;;;;;;8.05;4.50;;;;;;;3.48;47.79;101018.63;4989668;28;20078;-72
2021/01/07 00:59:26;;;;;;;9.13;4.63;;;;;;;3.47;47.68;101022.28;4984253;28;20129;-72
2021/01/07 01:01:53;;;;;;;10.40;4.50;;;;;;;3.47;47.62;101011.47;4988791;28;20122;-72
2021/01/07 01:04:20;;;;;;;10.82;4.63;;;;;;;3.47;47.80;101017.75;4989892;28;20142;-72
2021/01/07 01:06:48;;;;;;;9.55;4.60;;;;;;;3.49;47.83;101012.28;4984117;28;20049;-71
2021/01/07 01:09:16;;;;;;;9.88;4.72;;;;;;;3.48;48.00;101014.09;4990473;28;20046;-71
2021/01/07 01:11:44;;;;;;;8.45;4.60;;;;;;;3.48;47.71;101008.69;4984152;28;20038;-71
2021/01/07 01:14:12;;;;;;;8.88;4.75;;;;;;;3.50;47.99;101014.03;4991407;28;20153;-71
2021/01/07 01:16:40;;;;;;;8.30;4.80;;;;;;;3.49;47.78;101015.84;4991120;28;20046;-72
2021/01/07 01:19:07;;;;;;;9.00;5.20;;;;;;;3.50;47.69;101012.19;4989908;28;20129;-72
2021/01/07 01:21:35;;;;;;;9.00;4.70;;;;;;;3.49;47.79;101013.16;4991189;28;20038;-72
2021/01/07 01:24:04;;;;;;;8.57;4.75;;;;;;;3.51;47.75;101010.38;4987850;28;20092;-71
2021/01/07 01:26:31;;;;;;;8.15;4.63;;;;;;;3.51;47.83;101013.94;4985587;28;20054;-71
2021/01/07 01:28:58;;;;;;;9.85;4.97;;;;;;;3.52;47.73;101007.59;4982811;28;20057;-71
2021/01/07 01:31:26;;;;;;;9.45;5.28;;;;;;;3.53;47.99;101013.88;5006123;28;20042;-72
2021/01/07 01:33:53;;;;;;;9.77;4.80;;;;;;;3.53;48.00;101008.47;4985945;28;20401;-71
2021/01/07 01:36:25;;;;;;;9.32;5.10;;;;;;;3.54;47.68;101008.34;4987733;28;20085;-71
2021/01/07 01:38:52;;;;;;;9.98;5.68;;;;;;;3.53;47.75;101008.47;4994375;28;20056;-72
2021/01/07 01:41:21;;;;;;;10.05;5.10;;;;;;;3.53;47.96;101006.63;4994152;28;20537;-71
2021/01/07 01:43:48;;;;;;;9.73;5.25;;;;;;;3.53;48.04;101001.22;4991452;28;20069;-71
2021/01/07 01:46:15;;;;;;;10.20;5.07;;;;;;;3.54;48.09;101012.88;4992173;28;20050;-71
2021/01/07 01:48:44;;;;;;;12.10;5.38;;;;;;;3.54;47.90;101008.34;4986061;28;20048;-71
2021/01/07 01:51:11;;;;;;;9.57;4.90;;;;;;;3.54;47.84;101005.66;4993846;28;20047;-72
2021/01/07 01:53:39;;;;;;;9.75;5.32;;;;;;;3.54;47.85;101007.47;4999420;28;20116;-72
2021/01/07 01:56:07;;;;;;;11.23;6.00;;;;;;;3.53;48.15;101006.63;4993544;28;20046;-72
2021/01/07 01:58:36;;;;;;;10.88;5.55;;;;;;;3.55;48.16;101003.81;4990131;28;20049;-72
2021/01/07 02:01:03;;;;;;;10.35;5.70;;;;;;;3.53;47.88;101013.88;4994215;28;20053;-72
2021/01/07 02:03:31;;;;;;;11.38;6.07;;;;;;;3.53;47.82;101003.94;4993557;28;20034;-72
2021/01/07 02:06:02;;;;;;;10.85;5.90;;;;;;;3.54;48.20;101010.19;4993738;28;20050;-72
2021/01/07 02:08:32;;;;;;;9.98;5.85;;;;;;;3.50;48.08;101005.91;5009293;28;20038;-72
2021/01/07 02:11:08;;;;;;;10.05;5.63;;;;;;;3.51;48.12;101013.06;4993852;28;20090;-72
2021/01/07 02:13:37;;;;;;;11.25;5.53;;;;;;;3.52;48.04;101004.00;4994964;28;20054;-71
2021/01/07 02:16:05;;;;;;;12.45;6.70;;;;;;;3.50;47.93;101005.91;4988536;28;20081;-72
2021/01/07 02:18:32;;;;;;;12.73;6.55;;;;;;;3.48;47.72;101006.00;4987823;28;20046;-72
2021/01/07 02:21:01;;;;;;;10.73;6.05;;;;;;;3.50;47.84;101005.91;4992923;28;20062;-72
2021/01/07 02:23:29;;;;;;;11.95;6.47;;;;;;;3.46;47.74;101007.91;4986736;28;20057;-72
2021/01/07 02:25:56;;;;;;;10.52;5.55;;;;;;;3.46;47.68;101009.72;4990072;28;20047;-72
2021/01/07 02:28:24;;;;;;;11.65;5.65;;;;;;;3.43;47.82;100999.97;4998114;28;20097;-71
2021/01/07 02:30:51;;;;;;;10.93;6.28;;;;;;;3.41;48.14;101012.69;4995350;28;20041;-71
2021/01/07 02:33:18;;;;;;;9.65;5.22;;;;;;;3.40;48.07;101002.84;4991631;28;20125;-72
2021/01/07 02:35:46;;;;;;;12.43;6.28;;;;;;;3.40;48.15;101002.84;4989618;28;20137;-72
2021/01/07 02:38:14;;;;;;;10.43;5.85;;;;;;;3.40;48.22;101000.13;4987770;28;20074;-72
2021/01/07 02:40:42;;;;;;;10.50;5.35;;;;;;;3.39;48.13;100998.38;4986971;28;20042;-72
2021/01/07 02:43:09;;;;;;;10.02;5.97;;;;;;;3.38;48.01;101003.84;4998478;28;20096;-72
2021/01/07 02:45:42;;;;;;;10.48;6.00;;;;;;;3.38;48.16;100995.75;4994250;28;20038;-72
2021/01/07 02:48:10;;;;;;;9.93;4.90;;;;;;;3.38;48.40;100998.44;4991429;28;20042;-72
2021/01/07 02:50:37;;;;;;;10.65;6.35;;;;;;;3.36;48.19;100989.56;4992675;28;20042;-72
2021/01/07 02:53:05;;;;;;;9.60;5.28;;;;;;;3.38;48.07;100993.91;4985667;28;20397;-72
2021/01/07 02:55:33;;;;;;;10.90;5.93;;;;;;;3.38;48.13;100995.75;4991353;28;20056;-72
2021/01/07 02:58:01;;;;;;;12.90;6.53;;;;;;;3.37;48.03;100991.31;5001344;28;20093;-72
2021/01/07 03:00:29;;;;;;;11.38;6.15;;;;;;;3.37;48.18;100984.06;4994018;28;20458;-72
2021/01/07 03:02:56;;;;;;;11.52;6.78;;;;;;;3.37;48.24;100988.63;4993621;28;20046;-72
2021/01/07 03:05:23;;;;;;;10.52;5.45;;;;;;;3.37;48.18;100983.22;4993376;28;20038;-72
2021/01/07 03:07:50;;;;;;;11.43;6.00;;;;;;;3.36;48.02;100978.75;4993235;28;20077;-72
2021/01/07 03:10:18;;;;;;;10.30;5.20;;;;;;;3.35;48.03;100983.28;4988089;28;20062;-72
2021/01/07 03:12:46;;;;;;;11.57;6.53;;;;;;;3.35;48.50;100980.59;4992151;28;20061;-71
2021/01/07 03:15:13;;;;;;;12.20;6.22;;;;;;;3.35;48.25;100971.59;4992284;28;20042;-72
2021/01/07 03:17:40;;;;;;;13.00;6.18;;;;;;;3.33;48.40;100972.56;5008234;28;20513;-72
2021/01/07 03:20:12;;;;;;;11.10;5.72;;;;;;;3.37;48.22;100977.81;4990238;28;20041;-72
2021/01/07 03:22:40;;;;;;;10.70;6.32;;;;;;;3.34;48.24;100970.72;4989784;28;20038;-72
2021/01/07 03:25:08;;;;;;;11.20;5.90;;;;;;;3.34;48.39;100968.03;4992118;28;20038;-72
2021/01/07 03:27:37;;;;;;;11.63;6.72;;;;;;;3.35;48.33;100966.19;4992816;28;20045;-72
2021/01/07 03:30:07;;;;;;;13.57;7.20;;;;;;;3.34;48.12;100959.91;4992031;28;20038;-72
2021/01/07 03:32:35;;;;;;;12.25;6.75;;;;;;;3.33;48.54;100956.34;4991977;28;20425;-72
2021/01/07 03:35:03;;;;;;;11.15;6.30;;;;;;;3.33;48.59;100955.47;4992639;28;20117;-72
2021/01/07 03:37:31;;;;;;;12.70;6.40;;;;;;;3.33;48.52;100952.75;4988658;28;20134;-71
2021/01/07 03:39:59;;;;;;;11.65;6.43;;;;;;;3.32;48.38;100949.16;4986652;28;20485;-72
2021/01/07 03:42:26;;;;;;;12.48;6.78;;;;;;;3.33;48.66;100942.81;4989592;28;20057;-72
2021/01/07 03:44:53;;;;;;;12.35;6.80;;;;;;;3.33;48.43;100941.94;4992279;28;20042;-72
2021/01/07 03:47:22;;;;;;;15.23;7.75;;;;;;;3.34;48.55;100949.09;4990949;28;20397;-72
2021/01/07 03:49:49;;;;;;;14.52;7.72;;;;;;;3.32;48.24;100946.47;4992162;28;20046;-72
2021/01/07 03:52:16;;;;;;;13.45;7.70;;;;;;;3.31;48.47;100943.84;4989233;28;20363;-72
2021/01/07 03:54:44;;;;;;;12.75;6.75;;;;;;;3.32;48.51;100946.47;4988483;28;20481;-72
2021/01/07 03:57:12;;;;;;;12.57;6.50;;;;;;;3.31;48.41;100947.41;4992089;28;20065;-72
2021/01/07 03:59:39;;;;;;;14.43;7.78;;;;;;;3.32;48.57;100951.00;4989485;28;20462;-72
2021/01/07 04:02:06;;;;;;;14.07;7.03;;;;;;;3.31;48.45;100943.84;4992202;28;20118;-72
2021/01/07 04:04:34;;;;;;;13.65;7.90;;;;;;;3.32;48.50;100943.75;4992035;28;20038;-72
2021/01/07 04:07:01;;;;;;;12.60;7.75;;;;;;;3.31;48.49;100944.72;4991565;28;20046;-72
2021/01/07 04:09:29;;;;;;;15.52;8.68;;;;;;;3.30;48.27;100942.97;4990736;28;20081;-72
2021/01/07 04:11:56;;;;;;;14.43;7.60;;;;;;;3.31;48.73;100941.13;4991669;28;20130;-72
2021/01/07 04:14:24;;;;;;;16.05;8.32;;;;;;;3.30;48.32;100942.09;4988342;28;20042;-72
2021/01/07 04:16:53;;;;;;;15.20;8.10;;;;;;;3.31;48.44;100941.13;4992309;28;20046;-72
2021/01/07 04:19:21;;;;;;;16.10;8.85;;;;;;;3.31;48.41;100941.13;4990944;28;20049;-72
2021/01/07 04:21:49;;;;;;;14.63;7.32;;;;;;;3.32;48.45;100942.88;4991428;28;20141;-72
2021/01/07 04:24:16;;;;;;;13.75;8.00;;;;;;;3.32;48.41;100940.19;4992108;28;20121;-71
2021/01/07 04:26:45;;;;;;;14.82;7.82;;;;;;;3.32;48.66;100943.75;4992463;28;20061;-72
2021/01/07 04:29:13;;;;;;;14.45;7.57;;;;;;;3.32;48.54;100942.88;4990700;28;20150;-72
2021/01/07 04:31:40;;;;;;;14.90;8.48;;;;;;;3.33;48.70;100937.41;4989855;28;20047;-72
2021/01/07 04:34:07;;;;;;;15.10;8.07;;;;;;;3.33;48.64;100937.41;4992073;28;20097;-72
2021/01/07 04:36:35;;;;;;;13.55;7.75;;;;;;;3.33;48.70;100932.00;4991805;28;20066;-72
2021/01/07 04:39:03;;;;;;;13.40;7.45;;;;;;;3.35;48.71;100928.34;4989589;28;20050;-72
2021/01/07 04:41:31;;;;;;;13.93;7.85;;;;;;;3.35;48.49;100928.34;4993690;28;20038;-72
2021/01/07 04:43:59;;;;;;;15.68;8.98;;;;;;;3.36;48.36;100927.38;4991133;28;20122;-72
2021/01/07 04:46:28;;;;;;;14.77;8.23;;;;;;;3.35;48.41;100931.03;4984978;28;20558;-72
2021/01/07 04:48:55;;;;;;;14.88;7.57;;;;;;;3.36;48.56;100924.69;4991605;28;20051;-72
2021/01/07 04:51:23;;;;;;;14.38;7.38;;;;;;;3.36;48.62;100925.56;4989683;28;20046;-72
2021/01/07 04:53:51;;;;;;;12.40;6.93;;;;;;;3.35;48.73;100918.41;4992067;28;20500;-71
2021/01/07 04:56:19;;;;;;;14.65;7.68;;;;;;;3.37;48.71;100921.88;4987105;28;20654;-72
2021/01/07 04:58:46;;;;;;;14.30;7.75;;;;;;;3.36;48.76;100914.75;4991415;28;20068;-72
2021/01/07 05:01:14;;;;;;;16.10;8.80;;;;;;;3.36;48.81;100917.44;4988913;28;20521;-71
2021/01/07 05:03:45;;;;;;;15.70;8.93;;;;;;;3.39;48.56;100913.69;4994769;28;20423;-71
2021/01/07 05:06:13;;;;;;;15.15;8.48;;;;;;;3.37;48.61;100912.91;4991142;28;20050;-71
2021/01/07 05:08:40;;;;;;;16.25;8.50;;;;;;;3.36;48.73;100919.28;4986075;28;20105;-72
2021/01/07 05:11:08;;;;;;;16.60;9.13;;;;;;;3.37;48.90;100911.06;4991835;28;20043;-71
2021/01/07 05:13:42;;;;;;;13.95;8.05;;;;;;;3.39;48.88;100911.84;4987213;28;20046;-72
2021/01/07 05:16:21;;;;;;;14.90;8.15;;;;;;;3.39;48.81;100911.84;5005726;28;20042;-73
2021/01/07 05:18:48;;;;;;;17.98;8.55;;;;;;;3.36;48.92;100905.75;4994173;28;20370;-74
2021/01/07 05:21:21;;;;;;;13.70;7.70;;;;;;;3.35;48.75;100907.59;4994241;28;20101;-76
2021/01/07 05:23:49;;;;;;;14.50;7.97;;;;;;;3.37;48.73;100904.81;4996200;28;20081;-75
2021/01/07 05:26:18;;;;;;;14.07;7.25;;;;;;;3.37;48.65;100905.66;4990632;28;20042;-74
2021/01/07 05:28:47;;;;;;;13.95;7.90;;;;;;;3.37;48.85;100900.22;4992690;28;20101;-73
2021/01/07 05:31:18;;;;;;;13.82;7.65;;;;;;;3.39;48.83;100901.03;4993626;28;20377;-73
2021/01/07 05:33:46;;;;;;;15.98;8.32;;;;;;;3.37;48.73;100899.41;4990815;28;20398;-73
2021/01/07 05:36:24;;;;;;;14.30;7.53;;;;;;;3.41;49.07;100898.25;4992208;28;20116;-73
2021/01/07 05:38:53;;;;;;;14.02;8.18;;;;;;;3.38;49.35;100901.09;4990636;28;20044;-73
2021/01/07 05:41:22;;;;;;;16.60;8.88;;;;;;;3.38;48.82;100898.41;4992267;28;20039;-73
2021/01/07 05:43:59;;;;;;;15.07;8.50;;;;;;;3.41;49.20;100893.72;4995389;28;20050;-73
2021/01/07 05:46:27;;;;;;;14.85;8.00;;;;;;;3.37;48.98;100889.41;4987001;28;20514;-73
2021/01/07 05:48:54;;;;;;;16.25;8.73;;;;;;;3.39;48.72;100892.03;4993375;28;20057;-72
2021/01/07 05:51:25;;;;;;;15.00;7.75;;;;;;;3.39;49.11;100887.50;4993891;28;20587;-72
2021/01/07 05:53:53;;;;;;;13.52;8.07;;;;;;;3.38;49.04;100893.88;4994642;28;20125;-72
2021/01/07 05:56:21;;;;;;;17.15;9.02;;;;;;;3.39;48.89;100886.63;4991146;28;20121;-72
2021/01/07 05:58:50;;;;;;;15.88;7.70;;;;;;;3.40;49.06;100889.25;4994081;28;20049;-72
2021/01/07 06:01:19;;;;;;;17.35;8.40;;;;;;;3.39;49.35;100887.50;4992995;28;20054;-72
2021/01/07 06:03:48;;;;;;;15.75;8.10;;;;;;;3.40;49.07;100896.50;5010981;28;20042;-72
2021/01/07 06:06:17;;;;;;;19.15;8.57;;;;;;;3.40;49.26;100886.56;4994330;28;20039;-73
2021/01/07 06:08:49;;;;;;;19.40;9.10;;;;;;;3.41;49.26;100884.72;4994593;28;20097;-73
2021/01/07 06:11:17;;;;;;;19.73;9.63;;;;;;;3.40;48.84;100885.69;4994777;28;20046;-72
2021/01/07 06:13:47;;;;;;;14.88;8.07;;;;;;;3.40;49.04;100880.28;4995816;28;20050;-72
2021/01/07 06:16:16;;;;;;;15.65;8.18;;;;;;;3.39;49.22;100879.41;4991916;28;20046;-72
2021/01/07 06:18:44;;;;;;;16.23;8.88;;;;;;;3.39;49.32;100876.69;4994132;28;20053;-72
2021/01/07 06:21:14;;;;;;;19.08;9.32;;;;;;;3.39;48.87;100881.22;4992743;28;20078;-72
2021/01/07 06:23:42;;;;;;;18.00;8.85;;;;;;;3.39;49.05;100883.94;5008975;28;20042;-72
2021/01/07 06:26:24;;;;;;;17.20;8.68;;;;;;;3.40;49.25;100888.38;4995214;28;20450;-73
2021/01/07 06:28:54;;;;;;;14.95;8.80;;;;;;;3.36;49.02;100887.69;4993982;28;20125;-73
2021/01/07 06:31:31;;;;;;;15.48;7.70;;;;;;;3.37;49.51;100889.41;4991709;28;20146;-73
2021/01/07 06:33:59;;;;;;;15.98;7.28;;;;;;;3.35;49.10;100891.34;5007215;28;20130;-73
2021/01/07 06:36:37;;;;;;;13.27;6.75;;;;;;;3.36;49.42;100889.53;4995715;28;20085;-73
2021/01/07 06:39:06;;;;;;;16.30;8.13;;;;;;;3.35;49.30;100893.19;4992013;28;20132;-73
2021/01/07 06:41:34;;;;;;;13.80;7.25;;;;;;;3.32;49.29;100897.81;4992997;28;20065;-73
2021/01/07 06:44:03;;;;;;;17.33;8.98;;;;;;;3.32;49.31;100884.28;4993292;28;20417;-72
2021/01/07 06:46:41;;;;;;;17.17;8.30;;;;;;;3.36;49.55;100889.53;4991439;28;20605;-73
2021/01/07 06:49:23;;;;;;;16.13;7.85;;;;;;;3.33;49.57;100886.03;4990282;28;20385;-73
2021/01/07 06:51:55;;;;;;;17.10;8.47;;;;;;;3.29;49.47;100884.44;4994394;28;20061;-72
2021/01/07 06:54:27;;;;;;;18.00;9.15;;;;;;;3.29;49.39;100887.16;4995353;28;20047;-73
2021/01/07 06:56:55;;;;;;;15.23;8.10;;;;;;;3.30;49.49;100883.50;4993150;28;20079;-72
2021/01/07 06:59:23;;;;;;;15.68;8.15;;;;;;;3.30;49.28;100886.19;4996792;28;20042;-73
2021/01/07 07:01:53;;;;;;;17.67;8.80;;;;;;;3.31;49.50;100890.66;4992140;28;20043;-72
2021/01/07 07:04:25;;;;;;;15.45;7.97;;;;;;;3.33;49.45;100899.56;4989480;28;20042;-72
2021/01/07 07:07:03;;;;;;;;;;;;;;;3.08;49.87;100888.34;4989126;28;20421;-72
2021/01/07 07:09:40;;;;;;;17.00;7.97;;;;;;;3.27;49.18;100885.50;4991029;28;19953;-72
2021/01/07 07:12:07;;;;;;;12.48;6.60;;;;;;;3.28;49.31;100892.66;4987287;28;20050;-71
2021/01/07 07:14:35;;;;;;;15.77;7.32;;;;;;;3.27;49.45;100894.50;5008101;28;20449;-72
2021/01/07 07:17:07;;;;;;;13.68;6.82;;;;;;;3.29;49.76;100892.56;4991950;28;20057;-72
2021/01/07 07:19:38;;;;;;;14.70;8.13;;;;;;;3.27;49.67;100894.50;4992562;28;20497;-71
2021/01/07 07:22:09;;;;;;;13.70;7.13;;;;;;;3.29;49.41;100899.78;4993262;28;20070;-72
2021/01/07 07:24:40;;;;;;;14.00;7.60;;;;;;;3.30;49.35;100904.25;5002120;28;20042;-72
2021/01/07 07:27:09;;;;;;;12.18;6.32;;;;;;;3.29;49.34;100900.66;4993344;28;20058;-72
2021/01/07 07:29:38;;;;;;;12.93;6.68;;;;;;;3.30;49.51;100905.13;4992595;28;20051;-72
2021/01/07 07:32:23;;;;;;;13.02;6.43;;;;;;;3.31;49.80;100896.06;4994843;28;20046;-72
2021/01/07 07:34:52;;;;;;;13.93;6.88;;;;;;;3.31;49.57;100897.88;4987259;28;20414;-72
2021/01/07 07:37:21;;;;;;;13.32;6.32;;;;;;;3.33;49.36;100906.78;4975805;28;20070;-72
2021/01/07 07:39:49;;;;;;;13.82;6.82;;;;;;;3.33;49.23;100898.69;5007501;28;20046;-71
2021/01/07 07:42:17;;;;;;;13.73;7.38;;;;;;;3.34;49.54;100900.44;4992374;28;20039;-72
2021/01/07 07:44:45;;;;;;;11.85;6.07;;;;;;;3.34;49.49;100903.13;4993034;28;20414;-72
2021/01/07 07:47:12;;;;;;;15.90;7.30;;;;;;;3.35;49.41;100909.41;4996397;28;20087;-72
2021/01/07 07:49:39;;;;;;;13.00;6.95;;;;;;;3.35;49.68;100904.00;4992152;28;20065;-72
2021/01/07 07:52:07;;;;;;;12.75;6.60;;;;;;;3.37;49.45;100910.22;4992731;28;20457;-72
2021/01/07 07:54:35;;;;;;;12.38;6.80;;;;;;;3.36;49.38;100909.34;4982471;28;20046;-72
2021/01/07 07:57:02;;;;;;;12.65;6.80;;;;;;;3.37;49.15;100916.47;4992843;28;20061;-72
2021/01/07 07:59:33;;;;;;;13.20;6.70;;;;;;;3.37;49.38;100913.75;4980457;28;20434;-72
2021/01/07 08:02:00;;;;;;;13.55;7.88;;;;;;;3.38;49.17;100917.34;4992534;28;20557;-72
2021/01/07 08:04:28;;;;;;;14.65;8.18;;;;;;;3.38;49.53;100918.22;4992240;28;20042;-72
2021/01/07 08:06:55;;;;;;;15.80;8.43;;;;;;;3.38;49.37;100922.75;4992867;28;20498;-72
2021/01/07 08:09:26;;;;;;;15.30;8.38;;;;;;;3.39;49.45;100924.50;4991984;28;20065;-72
2021/01/07 08:11:54;;;;;;;13.23;7.10;;;;;;;3.38;49.46;100936.25;4992578;28;20346;-72
2021/01/07 08:14:22;;;;;;;13.23;7.72;;;;;;;3.38;49.24;100929.03;4991977;28;20610;-72
2021/01/07 08:16:55;;;;;;;13.27;7.32;;;;;;;3.38;49.38;100931.72;4991895;28;20046;-72
2021/01/07 08:19:24;;;;;;;16.45;9.10;;;;;;;3.35;49.38;100942.72;4988773;28;20558;-72
2021/01/07 08:21:52;;;;;;;16.75;8.73;;;;;;;3.36;49.44;100935.50;4991867;28;20133;-72
2021/01/07 08:24:22;;;;;;;15.80;8.38;;;;;;;3.35;49.17;100929.22;4992389;28;20134;-72
2021/01/07 08:27:06;;;;;;;13.98;7.90;;;;;;;3.36;49.38;100935.50;4991912;28;20057;-72
2021/01/07 08:29:36;;;;;;;16.48;8.38;;;;;;;3.32;49.44;100935.66;4991704;28;20068;-72
2021/01/07 08:32:05;;;;;;;15.35;8.13;;;;;;;3.31;49.34;100928.50;4991666;28;20054;-73
2021/01/07 08:34:33;;;;;;;19.13;9.13;;;;;;;3.30;49.48;100926.75;4992051;28;20039;-72
2021/01/07 08:37:08;;;;;;;13.57;7.22;;;;;;;3.31;49.77;100925.78;4984353;28;20097;-73
2021/01/07 08:39:40;;;;;;;15.68;8.35;;;;;;;3.30;49.66;100931.28;4997066;28;20054;-73
2021/01/07 08:42:10;;;;;;;14.98;7.85;;;;;;;3.26;49.58;100927.88;4990796;28;20074;-73
2021/01/07 08:44:38;;;;;;;16.27;8.55;;;;;;;3.27;49.66;100932.34;4989223;28;20047;-73
2021/01/07 08:47:21;;;;;;;14.75;7.85;;;;;;;3.29;49.67;100932.22;4991403;28;20348;-72
2021/01/07 08:50:01;;;;;;;15.65;7.75;;;;;;;3.28;49.67;100925.09;4994792;28;20379;-73
2021/01/07 08:52:29;;;;;;;12.63;7.00;;;;;;;3.25;49.40;100925.25;4992022;28;20048;-73
2021/01/07 08:54:57;;;;;;;14.43;7.95;;;;;;;3.24;49.40;100923.50;4995490;28;20038;-73
2021/01/07 08:57:25;;;;;;;14.15;7.15;;;;;;;3.24;49.63;100924.38;4995976;28;20064;-72
2021/01/07 08:59:52;;;;;;;12.95;7.05;;;;;;;3.23;49.56;100925.34;4994815;28;20405;-72
2021/01/07 09:02:20;;;;;;;13.38;7.28;;;;;;;3.23;49.41;100929.88;4988076;28;20047;-72
2021/01/07 09:04:50;;;;;;;13.07;6.55;;;;;;;3.22;49.73;100929.00;5008036;28;20110;-72
2021/01/07 09:07:20;;;;;;;13.65;6.82;;;;;;;3.23;49.58;100924.47;4995919;28;20050;-72
2021/01/07 09:09:48;;;;;;;11.48;6.18;;;;;;;3.23;49.49;100929.88;5009744;28;20057;-72
2021/01/07 09:12:18;;;;;;;15.48;7.70;;;;;;;3.23;49.78;100929.88;4996075;28;20041;-73
2021/01/07 09:14:52;;;;;;;12.82;6.82;;;;;;;3.25;49.69;100928.84;4995800;28;20034;-72
2021/01/07 09:17:20;;;;;;;13.18;7.45;;;;;;;3.23;49.93;100932.56;4988015;28;20061;-73
2021/01/07 09:19:51;;;;;;;12.48;6.82;;;;;;;3.25;49.71;100933.38;4995013;28;20046;-72
2021/01/07 09:22:20;;;;;;;12.23;6.63;;;;;;;3.24;49.77;100931.63;4994546;28;20074;-72
2021/01/07 09:24:48;;;;;;;13.73;7.05;;;;;;;3.26;49.61;100927.88;4995647;28;20050;-72
2021/01/07 09:27:18;;;;;;;13.45;7.10;;;;;;;3.27;49.61;100934.16;4995595;28;20045;-72
2021/01/07 09:29:46;;;;;;;13.20;6.65;;;;;;;3.26;49.69;100936.00;4994540;28;20486;-72
2021/01/07 09:32:15;;;;;;;12.48;7.20;;;;;;;3.25;49.94;100930.66;4994098;28;20047;-73
2021/01/07 09:34:43;;;;;;;11.98;6.13;;;;;;;3.26;49.64;100932.41;5006514;28;20445;-73
2021/01/07 09:37:14;;;;;;;13.25;6.90;;;;;;;3.25;49.67;100928.84;4992213;28;20050;-72
2021/01/07 09:39:43;;;;;;;13.38;6.68;;;;;;;3.25;49.84;100923.44;4995082;28;20050;-72
2021/01/07 09:42:17;;;;;;;11.60;6.30;;;;;;;3.25;49.64;100926.13;4979263;28;20043;-72
2021/01/07 09:44:45;;;;;;;12.18;6.65;;;;;;;3.25;49.73;100927.97;4994768;28;20093;-72
2021/01/07 09:47:13;;;;;;;13.75;6.85;;;;;;;3.25;49.77;100931.53;4990783;28;20273;-72
2021/01/07 09:49:41;;;;;;;12.73;6.88;;;;;;;3.25;49.74;100928.84;4994810;28;20049;-72
2021/01/07 09:52:09;;;;;;;13.05;6.65;;;;;;;3.25;49.70;100931.53;4996572;28;20043;-72
2021/01/07 09:54:39;;;;;;;11.15;5.55;;;;;;;3.27;49.71;100928.75;4976072;28;20050;-72
2021/01/07 09:57:06;;;;;;;12.13;6.43;;;;;;;3.27;49.56;100926.06;4987566;28;20094;-72
2021/01/07 09:59:34;;;;;;;12.77;6.72;;;;;;;3.26;50.06;100925.19;4994541;28;20512;-72
2021/01/07 10:02:03;;;;;;;13.35;7.43;;;;;;;3.27;49.69;100923.34;4983492;28;20043;-72
2021/01/07 10:04:32;;;;;;;13.30;6.35;;;;;;;3.28;49.91;100927.81;4976066;28;20046;-72
2021/01/07 10:07:00;;;;;;;12.38;6.40;;;;;;;3.28;49.96;100928.69;4986523;28;20046;-72
2021/01/07 10:09:29;;;;;;;11.27;6.13;;;;;;;3.28;49.87;100923.28;4994428;28;20042;-73
2021/01/07 10:11:58;;;;;;;12.60;7.10;;;;;;;3.31;49.80;100927.63;4985618;28;20490;-72
2021/01/07 10:14:27;;;;;;;9.88;5.88;;;;;;;3.31;49.92;100933.91;4976420;28;20410;-72
2021/01/07 10:16:55;;;;;;;11.65;6.07;;;;;;;3.31;49.77;100920.38;4993108;28;20089;-73
2021/01/07 10:19:24;;;;;;;11.73;6.63;;;;;;;3.35;49.92;100926.50;4994306;28;20042;-73
2021/01/07 10:21:59;;;;;;;12.65;6.80;;;;;;;3.36;50.32;100920.16;4987056;28;20414;-73
2021/01/07 10:24:28;;;;;;;11.32;6.28;;;;;;;3.36;50.03;100921.97;4975585;28;20142;-74
2021/01/07 10:26:58;;;;;;;11.77;6.78;;;;;;;3.37;50.01;100921.03;4982521;28;20039;-73
2021/01/07 10:29:28;;;;;;;11.88;6.40;;;;;;;3.37;50.16;100919.16;4993897;28;20046;-73
2021/01/07 10:31:58;;;;;;;12.98;6.78;;;;;;;3.37;50.09;100916.47;4988188;28;20138;-73
2021/01/07 10:34:28;;;;;;;12.02;6.47;;;;;;;3.41;50.02;100914.47;4975260;28;20094;-73
2021/01/07 10:36:57;;;;;;;13.77;7.15;;;;;;;3.41;50.03;100919.88;4994170;28;20422;-73
2021/01/07 10:39:26;;;;;;;12.48;6.75;;;;;;;3.40;50.05;100912.72;4983106;28;20576;-73
2021/01/07 10:41:57;;;;;;;13.25;6.95;;;;;;;3.44;50.49;100914.31;4979968;28;20541;-73
2021/01/07 10:44:27;;;;;;;12.43;7.22;;;;;;;3.44;50.11;100907.06;5009587;28;20050;-73
2021/01/07 10:46:59;;;;;;;12.02;6.93;;;;;;;3.44;50.28;100901.66;4993376;28;20046;-73
2021/01/07 10:49:28;;;;;;;14.25;6.65;;;;;;;3.41;50.13;100907.22;4993815;28;20096;-73
2021/01/07 10:52:26;;;;;;;10.60;6.53;;;;;;;3.47;50.13;100903.31;4989806;28;20509;-73
2021/01/07 10:55:07;;;;;;;11.27;6.13;;;;;;;3.46;50.12;100907.84;4975015;28;20097;-73
2021/01/07 10:58:02;;;;;;;11.32;6.28;;;;;;;3.47;50.17;100898.78;4983228;28;20046;-73
2021/01/07 11:00:44;;;;;;;12.15;6.35;;;;;;;3.47;50.14;100901.47;4991664;28;20417;-73
2021/01/07 11:03:31;;;;;;;11.55;6.45;;;;;;;3.46;50.21;100893.44;4981529;28;20043;-74
2021/01/07 11:06:02;;;;;;;10.63;5.82;;;;;;;3.47;49.82;100885.25;4974600;28;20047;-71
2021/01/07 11:08:37;;;;;;;10.00;5.70;;;;;;;3.49;50.17;100882.47;4987775;28;20050;-72
2021/01/07 11:11:10;;;;;;;11.88;6.78;;;;;;;3.47;49.70;100877.13;4993791;28;20073;-72
2021/01/07 11:13:42;;;;;;;13.32;6.90;;;;;;;3.47;50.22;100879.84;4978901;28;20055;-71
2021/01/07 11:16:17;;;;;;;10.63;6.22;;;;;;;3.49;50.04;100882.47;4988924;28;20054;-72
2021/01/07 11:18:49;;;;;;;11.65;6.10;;;;;;;3.48;49.82;100872.59;4992894;28;20132;-71
2021/01/07 11:21:24;;;;;;;9.82;5.55;;;;;;;3.51;49.98;100875.16;4993722;28;20493;-72
2021/01/07 11:23:53;;;;;;;11.57;5.97;;;;;;;3.50;50.24;100873.41;4978227;28;20377;-73
2021/01/07 11:26:25;;;;;;;11.38;6.13;;;;;;;3.51;50.02;100870.59;4974348;28;20058;-72
2021/01/07 11:28:52;;;;;;;11.23;6.60;;;;;;;3.50;50.11;100863.44;4988518;28;20050;-72
2021/01/07 11:34:49;;;;;;;10.50;5.82;;;;;;;3.48;50.18;100856.38;4990562;28;20122;-72
2021/01/07 11:37:23;;;;;;;11.02;6.10;;;;;;;3.52;50.23;100855.25;4992286;28;20050;-72
2021/01/07 11:40:05;;;;;;;12.90;6.38;;;;;;;3.54;50.55;100846.06;4985552;28;20065;-72